Redwood City, CA (94065)

12:54 PM PST on February 06, 2016 (GMT -0800)
Belmont - Island Park | | Change Station
CLOSE
Current Station
Personal Weather Station
Location: Belmont, CA
Elevation: 25 ft
Nearby Weather Stations

Elev 25 ft 37.53 °N, 122.27 °W | Updated 11 seconds ago

Mostly Cloudy
Mostly Cloudy
64.4 °F
Feels Like 64.4 °F
N
2.0
Wind Variable Wind from ESE
Gusts 5.0 mph

Today
High -- | Low -- °F
--% Chance of Precip.
Yesterday
High -- | Low -- °F
Precip. -- in
Pressure 30.39 in
Visibility 10.0 miles
Clouds Few 15000 ft
Mostly Cloudy 20000 ft
Dew Point 49 °F
Humidity 57%
Rainfall 0.00 in
Snow Depth Not available.
7:08 AM 5:38 PM
Waning Crescent, 4% visible
METAR KSQL 062047Z VRB03KT 10SM FEW150 BKN200 15/09 A3039
Pressure 30.39 in
Visibility 10.0 miles
Clouds Few 15000 ft
Mostly Cloudy 20000 ft
Dew Point 49 °F
Humidity 57%
Rainfall 0.00 in
Snow Depth Not available.
7:08 AM 5:38 PM
Waning Crescent, 4% visible
METAR KSQL 062047Z VRB03KT 10SM FEW150 BKN200 15/09 A3039

10-Day Weather Forecast

Almanac

Astronomy

Feb. 06, 2016 Rise Set
Actual Time
Civil Twilight
Nautical Twilight
Astronomical Twilight
Moon
Length of Visible Light
Length of Day
Tomorrow will be .
, % of the Moon is Illuminated

Today's Extremes

State Highs State Lows

Community

WunderPhotos

Upload Photos

1,891,046 photos uploaded!

WunderBlog® & News

Nearby

Air Quality

  Air Quality AQ Index Pollutant
Not available.

Snow Depth

Station Depth Elevation

Earthquake Activity

City Distance Mag. Time & Date
Minimum magnitude displayed is 2.5.

Coastal Water Temperatures

Place Temperature

Stations

Nearby Weather Stations

Station Location Temp. Windchill Dew Point Humidity Wind Precip. Elev Updated Type
                   

Watches & Warnings

There are currently no watches in effect.